createdAt,value
2024-02-04T00:01:39.745Z,73.32
2024-02-04T00:04:09.314Z,72.91
2024-02-04T00:06:40.534Z,73.70
2024-02-04T00:09:09.696Z,73.53
2024-02-04T00:11:38.352Z,74.00
2024-02-04T00:14:10.368Z,74.57
2024-02-04T00:16:42.393Z,74.96
2024-02-04T00:19:23.429Z,76.30
2024-02-04T00:21:51.445Z,75.77
2024-02-04T00:24:20.641Z,75.47
2024-02-04T00:26:50.775Z,75.93
2024-02-04T00:30:08.385Z,76.15
2024-02-04T00:40:25.087Z,77.11
2024-02-04T00:43:00.672Z,76.71
2024-02-04T00:50:15.769Z,76.52
2024-02-04T00:57:28.336Z,77.06
2024-02-04T01:01:16.493Z,76.48
2024-02-04T01:03:49.726Z,76.80
2024-02-04T01:06:57.059Z,76.59
2024-02-04T01:29:47.118Z,76.11
2024-02-04T01:36:01.402Z,75.92
2024-02-04T01:38:54.481Z,75.57
2024-02-04T01:41:47.360Z,76.05
2024-02-04T01:44:32.755Z,75.95
2024-02-04T01:47:06.168Z,75.74
2024-02-04T01:50:34.170Z,75.81
2024-02-04T01:58:14.053Z,76.10
2024-02-04T02:01:33.532Z,76.01
2024-02-04T02:09:28.151Z,77.79
2024-02-04T02:13:12.587Z,77.29
2024-02-04T02:16:39.110Z,78.24
2024-02-04T02:23:48.744Z,79.24
2024-02-04T02:26:28.587Z,79.50
2024-02-04T02:29:39.085Z,79.49
2024-02-04T02:32:32.311Z,79.70
2024-02-04T02:35:05.168Z,79.84
2024-02-04T02:41:01.237Z,80.78
2024-02-04T02:43:58.635Z,80.97
2024-02-04T02:46:57.321Z,80.59
2024-02-04T02:49:27.485Z,81.47
2024-02-04T02:51:55.810Z,81.07
2024-02-04T02:54:26.632Z,81.26
2024-02-04T02:56:57.106Z,81.27
2024-02-04T02:59:36.284Z,82.58
2024-02-04T03:02:07.233Z,83.05
2024-02-04T03:04:37.539Z,83.29
2024-02-04T03:07:11.040Z,83.71
2024-02-04T03:09:47.687Z,83.90
2024-02-04T03:12:17.046Z,84.11
2024-02-04T03:14:47.974Z,84.24
2024-02-04T03:17:22.184Z,84.67
2024-02-04T03:19:56.190Z,84.28
2024-02-04T03:22:31.817Z,84.38
2024-02-04T03:25:01.085Z,83.91
2024-02-04T03:27:30.586Z,84.57
2024-02-04T03:30:02.959Z,84.13
2024-02-04T03:32:34.967Z,84.28
2024-02-04T03:35:08.978Z,84.72
2024-02-04T03:37:54.930Z,84.12
2024-02-04T03:40:26.032Z,85.31
2024-02-04T03:42:55.472Z,85.68
2024-02-04T03:45:26.305Z,85.40
2024-02-04T03:48:06.309Z,84.94
2024-02-04T03:50:40.526Z,85.12
2024-02-04T03:53:09.911Z,84.71
2024-02-04T03:55:42.705Z,84.69
2024-02-04T03:58:14.827Z,84.86
2024-02-04T04:00:55.951Z,85.45
2024-02-04T04:03:36.260Z,85.30
2024-02-04T04:06:15.208Z,84.83
2024-02-04T04:08:46.843Z,85.12
2024-02-04T04:11:17.120Z,84.74
2024-02-04T04:13:45.970Z,84.77
2024-02-04T04:16:22.237Z,84.36
2024-02-04T04:18:55.896Z,84.81
2024-02-04T04:21:28.299Z,84.12
2024-02-04T04:23:57.842Z,84.27
2024-02-04T04:26:27.602Z,83.96
2024-02-04T04:28:58.509Z,84.68
2024-02-04T04:31:34.196Z,84.01
2024-02-04T04:34:11.892Z,84.01
2024-02-04T04:36:44.356Z,84.03
2024-02-04T04:39:12.731Z,84.38
2024-02-04T04:41:42.538Z,82.98
2024-02-04T04:44:13.179Z,82.39
2024-02-04T04:46:49.606Z,82.65
2024-02-04T04:49:23.997Z,83.00
2024-02-04T04:51:52.775Z,82.44
2024-02-04T04:54:22.881Z,82.45
2024-02-04T04:56:52.740Z,81.79
2024-02-04T04:59:21.728Z,82.21
2024-02-04T05:01:52.955Z,82.27
2024-02-04T05:04:26.947Z,81.64
2024-02-04T05:06:56.363Z,81.08
2024-02-04T05:09:28.091Z,80.72
2024-02-04T05:11:57.908Z,80.39
2024-02-04T05:14:27.716Z,80.20
2024-02-04T05:16:58.886Z,80.06
2024-02-04T05:19:30.012Z,79.98
2024-02-04T05:22:00.986Z,79.47
2024-02-04T05:24:30.372Z,80.30
2024-02-04T05:27:12.925Z,79.46
2024-02-04T05:29:41.260Z,79.71
2024-02-04T05:32:13.787Z,79.43
2024-02-04T05:34:49.345Z,79.49
2024-02-04T05:40:59.457Z,78.75
2024-02-04T05:43:35.892Z,78.92
2024-02-04T05:46:13.048Z,78.72
2024-02-04T05:48:45.988Z,79.37
2024-02-04T05:51:14.435Z,79.67
2024-02-04T05:53:42.527Z,79.16
2024-02-04T05:56:10.499Z,79.07
2024-02-04T05:58:39.305Z,79.08
2024-02-04T06:01:10.936Z,78.73
2024-02-04T06:03:39.424Z,78.88
2024-02-04T06:06:11.682Z,79.44
2024-02-04T06:08:41.559Z,78.97
2024-02-04T06:11:13.648Z,79.07
2024-02-04T06:13:46.056Z,78.75
2024-02-04T06:16:17.786Z,78.78
2024-02-04T06:18:47.650Z,79.25
2024-02-04T06:21:20.076Z,79.42
2024-02-04T06:24:05.618Z,79.40
2024-02-04T06:26:39.339Z,78.95
2024-02-04T06:29:09.890Z,78.29
2024-02-04T06:31:39.601Z,78.78
2024-02-04T06:34:08.569Z,78.16
2024-02-04T06:36:44.801Z,77.98
2024-02-04T06:39:17.667Z,77.82
2024-02-04T06:42:16.499Z,78.46
2024-02-04T06:44:48.617Z,78.30
2024-02-04T06:47:19.462Z,77.85
2024-02-04T06:50:07.217Z,77.24
2024-02-04T06:52:43.048Z,77.71
2024-02-04T06:55:48.329Z,77.82
2024-02-04T06:58:19.651Z,77.78
2024-02-04T07:00:53.989Z,77.50
2024-02-04T07:03:26.825Z,77.35
2024-02-04T07:05:55.063Z,77.43
2024-02-04T07:08:34.450Z,77.08
2024-02-04T07:11:27.828Z,77.11
2024-02-04T07:14:03.095Z,76.88
2024-02-04T07:16:31.600Z,76.89
2024-02-04T07:19:01.876Z,76.93
2024-02-04T07:21:31.505Z,76.57
2024-02-04T07:24:26.352Z,76.71
2024-02-04T07:26:54.963Z,76.65
2024-02-04T07:29:26.059Z,76.45
2024-02-04T07:32:11.873Z,76.51
2024-02-04T07:34:42.077Z,76.55
2024-02-04T07:37:10.454Z,76.02
2024-02-04T07:39:41.611Z,75.80
2024-02-04T07:42:10.519Z,75.54
2024-02-04T07:44:38.565Z,75.89
2024-02-04T07:47:09.140Z,75.80
2024-02-04T07:49:37.612Z,75.59
2024-02-04T07:52:06.516Z,75.66
2024-02-04T07:54:37.009Z,75.74
2024-02-04T07:57:08.015Z,75.75
2024-02-04T07:59:40.657Z,75.86
2024-02-04T08:02:14.244Z,76.08
2024-02-04T08:04:44.321Z,75.62
2024-02-04T08:07:16.013Z,76.58
2024-02-04T08:09:47.255Z,76.85
2024-02-04T08:12:40.374Z,76.98
2024-02-04T08:15:16.693Z,76.65
2024-02-04T08:17:45.985Z,76.33
2024-02-04T08:20:21.402Z,76.60
2024-02-04T08:27:59.263Z,75.79
2024-02-04T08:30:35.704Z,75.82
2024-02-04T08:33:06.090Z,75.00
2024-02-04T08:36:07.792Z,74.94
2024-02-04T08:39:06.256Z,74.98
2024-02-04T08:41:36.247Z,74.81
2024-02-04T08:44:05.897Z,74.43
2024-02-04T08:46:37.974Z,75.00
2024-02-04T08:49:07.387Z,74.08
2024-02-04T08:51:37.375Z,74.65
2024-02-04T08:54:08.439Z,73.78
2024-02-04T08:56:46.059Z,74.13
2024-02-04T08:59:22.381Z,73.83
2024-02-04T09:01:50.957Z,72.41
2024-02-04T09:04:25.806Z,72.60
2024-02-04T09:06:57.669Z,72.95
2024-02-04T09:09:28.536Z,73.19
2024-02-04T09:11:59.173Z,73.45
2024-02-04T09:14:32.800Z,72.64
2024-02-04T09:17:10.592Z,72.93
2024-02-04T09:19:43.176Z,73.47
2024-02-04T09:22:33.195Z,73.97
2024-02-04T09:25:09.691Z,74.91
2024-02-04T09:27:42.465Z,74.67
2024-02-04T09:30:16.780Z,74.36
2024-02-04T09:33:11.560Z,74.02
2024-02-04T09:35:43.435Z,73.89
2024-02-04T09:38:18.659Z,73.70
2024-02-04T09:41:23.605Z,72.98
2024-02-04T09:43:56.242Z,72.85
2024-02-04T09:46:28.835Z,72.20
2024-02-04T09:49:07.676Z,72.34
2024-02-04T09:52:02.508Z,71.60
2024-02-04T09:57:21.145Z,71.81
2024-02-04T09:59:59.113Z,71.53
2024-02-04T10:05:23.217Z,72.06
2024-02-04T10:16:55.938Z,71.48
2024-02-04T10:19:30.738Z,72.14
2024-02-04T10:22:10.477Z,71.23
2024-02-04T10:28:33.845Z,70.35
2024-02-04T10:35:12.484Z,71.16
2024-02-04T10:38:13.392Z,71.21
2024-02-04T10:41:11.121Z,70.46
2024-02-04T10:47:05.705Z,70.96
2024-02-04T10:53:05.515Z,70.33
2024-02-04T10:56:06.910Z,70.05
2024-02-04T10:58:45.917Z,69.90
2024-02-04T11:01:21.507Z,71.32
2024-02-04T11:04:18.006Z,72.00
2024-02-04T11:07:18.312Z,72.67
2024-02-04T11:10:24.147Z,73.43
2024-02-04T11:12:55.138Z,72.75
2024-02-04T11:15:39.932Z,73.38
2024-02-04T11:18:45.266Z,74.04
2024-02-04T11:21:44.595Z,72.05
2024-02-04T11:24:32.144Z,70.40
2024-02-04T11:27:05.661Z,70.20
2024-02-04T11:30:21.363Z,69.90
2024-02-04T11:36:09.090Z,71.53
2024-02-04T11:38:42.851Z,72.22
2024-02-04T11:41:29.232Z,72.55
2024-02-04T11:44:33.694Z,72.88
2024-02-04T11:47:02.847Z,74.19
2024-02-04T11:49:42.594Z,74.39
2024-02-04T11:57:21.298Z,73.53
2024-02-04T12:00:21.899Z,73.72
2024-02-04T12:08:57.843Z,72.95
2024-02-04T12:12:01.812Z,72.96
2024-02-04T12:15:26.785Z,72.11
2024-02-04T12:18:21.913Z,71.05
2024-02-04T12:21:15.167Z,69.15
2024-02-04T12:24:45.512Z,68.87
2024-02-04T12:28:12.972Z,68.95
2024-02-04T12:34:23.983Z,69.72
2024-02-04T12:37:10.834Z,70.35
2024-02-04T12:39:45.951Z,71.67
2024-02-04T12:42:23.388Z,71.16
2024-02-04T12:45:12.731Z,71.02
2024-02-04T12:47:46.585Z,70.60
2024-02-04T12:50:19.973Z,70.33
2024-02-04T12:53:21.703Z,70.68
2024-02-04T12:58:53.133Z,71.00
2024-02-04T13:01:29.686Z,70.57
2024-02-04T13:03:59.026Z,70.27
2024-02-04T13:06:28.469Z,70.33
2024-02-04T13:09:06.167Z,71.20
2024-02-04T13:11:37.734Z,71.40
2024-02-04T13:14:08.648Z,71.17
2024-02-04T13:16:44.230Z,70.98
2024-02-04T13:19:16.249Z,71.29
2024-02-04T13:21:50.762Z,71.44
2024-02-04T13:24:19.004Z,71.67
2024-02-04T13:26:50.816Z,71.64
2024-02-04T13:29:22.576Z,71.68
2024-02-04T13:35:09.463Z,72.05
2024-02-04T13:37:48.184Z,70.55
2024-02-04T13:40:25.005Z,69.15
2024-02-04T13:42:59.333Z,68.53
2024-02-04T13:45:33.837Z,68.03
2024-02-04T13:48:11.635Z,67.72
2024-02-04T13:50:49.336Z,69.38
2024-02-04T13:54:08.791Z,69.67
2024-02-04T14:54:42.851Z,72.24
2024-02-04T14:57:18.470Z,72.40
2024-02-04T14:59:51.662Z,72.02
2024-02-04T15:02:22.713Z,71.84
2024-02-04T15:05:00.404Z,72.04
2024-02-04T15:07:45.887Z,71.71
2024-02-04T15:10:24.381Z,72.21
2024-02-04T15:12:56.280Z,72.09
2024-02-04T15:15:40.833Z,72.83
2024-02-04T15:18:14.043Z,73.41
2024-02-04T15:20:50.361Z,72.78
2024-02-04T15:23:49.066Z,72.35
2024-02-04T15:26:26.323Z,72.52
2024-02-04T15:29:02.370Z,72.36
2024-02-04T15:34:43.837Z,72.46
2024-02-04T15:37:14.404Z,72.59
2024-02-04T15:40:49.792Z,73.10
2024-02-04T15:43:26.288Z,73.34
2024-02-04T15:46:00.336Z,73.92
2024-02-04T15:48:35.433Z,73.88
2024-02-04T15:51:13.270Z,73.76
2024-02-04T15:53:53.234Z,73.72
2024-02-04T15:56:35.951Z,73.24
2024-02-04T15:59:26.517Z,73.09
2024-02-04T16:01:56.464Z,72.64
2024-02-04T16:04:28.231Z,73.12
2024-02-04T16:07:27.777Z,73.79
2024-02-04T16:10:29.070Z,73.74
2024-02-04T16:16:19.373Z,73.97
2024-02-04T16:19:51.436Z,73.97
2024-02-04T16:22:41.175Z,74.01
2024-02-04T16:25:40.815Z,74.14
2024-02-04T16:28:15.409Z,73.62
2024-02-04T16:33:40.382Z,74.25
2024-02-04T16:36:12.353Z,73.45
2024-02-04T16:38:50.179Z,74.24
2024-02-04T16:41:25.494Z,74.25
2024-02-04T16:44:22.856Z,74.85
2024-02-04T16:47:02.174Z,74.91
2024-02-04T17:30:02.611Z,73.29
2024-02-04T17:35:33.866Z,72.97
2024-02-04T17:38:06.029Z,72.75
2024-02-04T17:44:14.151Z,73.01
2024-02-04T17:46:47.709Z,72.16
2024-02-04T17:49:19.799Z,72.25
2024-02-04T17:51:54.183Z,72.21
2024-02-04T17:59:28.781Z,72.71
2024-02-04T22:06:38.887Z,69.81
2024-02-04T22:09:26.829Z,69.52
2024-02-04T22:26:19.949Z,70.98
2024-02-04T22:29:16.277Z,70.05
2024-02-04T22:36:24.301Z,70.58
2024-02-04T22:39:49.898Z,71.07
2024-02-04T22:42:35.770Z,70.89
2024-02-04T22:45:12.159Z,70.99
2024-02-04T22:48:17.366Z,70.94
2024-02-04T22:50:53.621Z,70.79
2024-02-04T22:53:35.371Z,70.65
2024-02-04T22:56:09.839Z,71.07
2024-02-04T23:07:39.839Z,71.50
2024-02-04T23:27:29.431Z,72.44
2024-02-04T23:33:07.723Z,74.17
2024-02-04T23:35:41.106Z,75.30
2024-02-04T23:38:14.086Z,75.65
2024-02-04T23:40:52.678Z,75.74
2024-02-04T23:43:24.287Z,75.56
2024-02-04T23:45:52.987Z,75.23
2024-02-04T23:48:26.469Z,75.61
2024-02-04T23:51:22.499Z,75.93
2024-02-04T23:54:01.088Z,76.37
2024-02-04T23:57:38.358Z,77.84
